createdAt,value
2019-03-18T00:00:25.703Z,2.75
2019-03-18T00:02:54.520Z,3.70
2019-03-18T00:05:22.973Z,1.20
2019-03-18T00:07:51.445Z,4.45
2019-03-18T00:10:21.350Z,2.77
2019-03-18T00:12:52.117Z,5.53
2019-03-18T00:15:20.737Z,2.52
2019-03-18T00:17:49.275Z,2.50
2019-03-18T00:20:17.723Z,3.35
2019-03-18T00:22:46.503Z,2.72
2019-03-18T00:25:15.895Z,3.42
2019-03-18T00:27:44.374Z,2.98
2019-03-18T00:30:14.990Z,6.72
2019-03-18T00:32:43.464Z,6.92
2019-03-18T00:35:12.178Z,2.52
2019-03-18T00:37:40.655Z,2.33
2019-03-18T00:40:12.325Z,2.17
2019-03-18T00:42:40.847Z,2.75
2019-03-18T00:45:14.681Z,3.55
2019-03-18T00:47:39.935Z,3.15
2019-03-18T00:50:11.511Z,6.80
2019-03-18T00:52:39.987Z,2.02
2019-03-18T00:55:09.471Z,5.20
2019-03-18T00:57:38.016Z,2.50
2019-03-18T01:00:17.731Z,4.25
2019-03-18T01:02:49.110Z,5.85
2019-03-18T01:05:16.536Z,5.08
2019-03-18T01:08:04.417Z,2.20
2019-03-18T01:10:33.167Z,4.30
2019-03-18T01:13:01.963Z,2.83
2019-03-18T01:15:30.747Z,2.70
2019-03-18T01:18:00.318Z,2.77
2019-03-18T01:20:28.765Z,1.62
2019-03-18T01:22:57.305Z,8.05
2019-03-18T01:25:25.752Z,6.97
2019-03-18T01:27:54.509Z,5.22
2019-03-18T01:30:23.057Z,7.65
2019-03-18T01:32:51.594Z,7.47
2019-03-18T01:35:20.056Z,7.55
2019-03-18T01:37:48.865Z,1.95
2019-03-18T01:40:17.354Z,1.92
2019-03-18T01:42:46.244Z,1.35
2019-03-18T01:45:15.150Z,2.80
2019-03-18T01:47:43.600Z,1.12
2019-03-18T01:50:16.535Z,2.30
2019-03-18T01:52:45.512Z,2.05
2019-03-18T01:55:14.407Z,4.45
2019-03-18T01:57:42.853Z,4.33
2019-03-18T02:00:17.519Z,2.05
2019-03-18T02:02:46.304Z,4.65
2019-03-18T02:05:14.851Z,3.20
2019-03-18T02:07:44.715Z,20.60
2019-03-18T02:10:15.651Z,9.70
2019-03-18T02:12:44.446Z,8.50
2019-03-18T02:15:14.171Z,7.55
2019-03-18T02:17:43.053Z,9.55
2019-03-18T02:20:19.351Z,4.12
2019-03-18T02:22:46.879Z,7.03
2019-03-18T02:25:15.680Z,9.83
2019-03-18T02:27:45.696Z,7.95
2019-03-18T02:30:18.272Z,12.55
2019-03-18T02:32:47.016Z,1.95
2019-03-18T02:35:15.766Z,16.30
2019-03-18T02:37:46.191Z,13.18
2019-03-18T02:40:14.984Z,13.65
2019-03-18T02:42:43.777Z,5.42
2019-03-18T02:45:12.492Z,13.53
2019-03-18T02:47:41.567Z,11.55
2019-03-18T02:50:11.484Z,11.10
2019-03-18T02:52:40.385Z,20.08
2019-03-18T02:55:09.689Z,7.85
2019-03-18T02:57:38.203Z,6.45
2019-03-18T03:00:11.952Z,5.25
2019-03-18T03:02:40.572Z,8.80
2019-03-18T03:05:11.280Z,9.63
2019-03-18T03:07:40.934Z,10.85
2019-03-18T03:10:11.219Z,8.53
2019-03-18T03:12:40.036Z,13.32
2019-03-18T03:15:10.866Z,11.12
2019-03-18T03:17:39.700Z,3.08
2019-03-18T03:20:10.434Z,6.83
2019-03-18T03:22:39.020Z,14.43
2019-03-18T03:25:09.362Z,4.55
2019-03-18T03:27:38.247Z,18.62
2019-03-18T03:30:10.273Z,3.75
2019-03-18T03:32:38.823Z,6.50
2019-03-18T03:35:07.999Z,12.15
2019-03-18T03:37:36.486Z,5.60
2019-03-18T03:40:07.797Z,10.72
2019-03-18T03:42:36.299Z,13.00
2019-03-18T03:45:07.167Z,9.30
2019-03-18T03:47:35.928Z,3.85
2019-03-18T03:50:06.859Z,20.72
2019-03-18T03:52:35.307Z,9.75
2019-03-18T03:55:05.172Z,6.15
2019-03-18T03:57:33.962Z,9.50
2019-03-18T04:00:03.600Z,8.83
2019-03-18T04:02:32.360Z,6.92
2019-03-18T04:05:00.848Z,6.45
2019-03-18T04:07:29.364Z,6.08
2019-03-18T04:09:57.846Z,11.95
2019-03-18T04:12:26.712Z,5.12
2019-03-18T04:14:55.181Z,4.60
2019-03-18T04:17:23.640Z,6.60
2019-03-18T04:19:52.479Z,7.75
2019-03-18T04:22:21.279Z,5.72
2019-03-18T04:24:50.164Z,6.40
2019-03-18T04:27:18.683Z,9.83
2019-03-18T04:29:47.231Z,6.72
2019-03-18T04:32:16.035Z,7.15
2019-03-18T04:34:44.824Z,8.90
2019-03-18T04:37:13.624Z,8.33
2019-03-18T04:39:42.144Z,6.50
2019-03-18T04:42:10.618Z,7.03
2019-03-18T04:44:39.383Z,10.18
2019-03-18T04:47:14.129Z,9.55
2019-03-18T04:49:38.714Z,13.95
2019-03-18T04:52:07.179Z,6.22
2019-03-18T04:54:35.987Z,8.25
2019-03-18T04:57:04.780Z,7.83
2019-03-18T04:59:33.578Z,6.53
2019-03-18T05:02:02.043Z,6.37
2019-03-18T05:04:30.581Z,5.90
2019-03-18T05:06:59.335Z,7.53
2019-03-18T05:09:27.796Z,6.28
2019-03-18T05:11:56.269Z,6.78
2019-03-18T05:14:25.107Z,8.33
2019-03-18T05:16:54.003Z,9.85
2019-03-18T05:19:22.523Z,9.58
2019-03-18T05:21:51.003Z,8.88
2019-03-18T05:24:19.863Z,12.07
2019-03-18T05:26:48.345Z,11.55
2019-03-18T05:29:17.143Z,9.45
2019-03-18T05:31:45.936Z,11.05
2019-03-18T05:34:14.729Z,7.35
2019-03-18T05:36:43.199Z,17.30
2019-03-18T05:39:11.647Z,9.95
2019-03-18T05:41:40.391Z,7.33
2019-03-18T05:44:08.914Z,6.47
2019-03-18T05:46:37.772Z,14.73
2019-03-18T05:49:06.563Z,13.20
2019-03-18T05:51:35.360Z,10.60
2019-03-18T05:54:04.148Z,9.53
2019-03-18T05:56:32.956Z,9.93
2019-03-18T05:59:01.835Z,11.15
2019-03-18T06:01:30.310Z,10.48
2019-03-18T06:03:59.115Z,13.88
2019-03-18T06:06:27.583Z,7.05
2019-03-18T06:08:56.406Z,9.68
2019-03-18T06:11:24.942Z,8.30
2019-03-18T06:13:56.307Z,11.30
2019-03-18T06:16:23.892Z,7.78
2019-03-18T06:18:52.415Z,4.83
2019-03-18T06:21:20.895Z,17.90
2019-03-18T06:23:49.660Z,8.25
2019-03-18T06:26:18.146Z,15.98
2019-03-18T06:28:46.939Z,14.18
2019-03-18T06:31:15.796Z,9.45
2019-03-18T06:33:44.370Z,18.30
2019-03-18T06:36:13.114Z,10.18
2019-03-18T06:38:41.563Z,12.43
2019-03-18T06:41:10.115Z,15.60
2019-03-18T06:43:38.655Z,13.68
2019-03-18T06:46:07.467Z,9.33
2019-03-18T06:48:36.202Z,7.62
2019-03-18T06:51:05.053Z,8.93
2019-03-18T06:53:33.847Z,14.68
2019-03-18T06:56:02.631Z,10.00
2019-03-18T06:58:31.110Z,10.18
2019-03-18T07:00:59.914Z,10.03
2019-03-18T07:03:28.703Z,4.30
2019-03-18T07:05:57.155Z,4.90
2019-03-18T07:08:25.988Z,7.65
2019-03-18T07:10:54.883Z,9.65
2019-03-18T07:13:23.676Z,14.03
2019-03-18T07:15:52.128Z,7.75
2019-03-18T07:18:20.602Z,10.80
2019-03-18T07:20:49.332Z,21.68
2019-03-18T07:23:17.809Z,8.40
2019-03-18T07:25:46.388Z,8.78
2019-03-18T07:28:14.883Z,9.15
2019-03-18T07:30:43.330Z,13.10
2019-03-18T07:33:11.804Z,9.20
2019-03-18T07:35:40.256Z,9.53
2019-03-18T07:38:09.043Z,11.95
2019-03-18T07:40:37.831Z,8.05
2019-03-18T07:43:06.302Z,13.22
2019-03-18T07:45:34.751Z,6.67
2019-03-18T07:48:03.503Z,11.85
2019-03-18T07:50:32.018Z,24.85
2019-03-18T07:53:00.540Z,12.95
2019-03-18T07:55:29.369Z,11.18
2019-03-18T07:57:58.268Z,9.63
2019-03-18T08:00:27.159Z,7.83
2019-03-18T08:02:56.054Z,12.18
2019-03-18T08:05:24.499Z,9.98
2019-03-18T08:07:52.971Z,5.42
2019-03-18T08:10:21.816Z,7.65
2019-03-18T08:12:50.295Z,14.40
2019-03-18T08:15:19.096Z,10.10
2019-03-18T08:17:47.884Z,9.58
2019-03-18T08:20:16.679Z,15.05
2019-03-18T08:22:45.472Z,12.30
2019-03-18T08:25:14.096Z,6.72
2019-03-18T08:27:42.647Z,9.60
2019-03-18T08:30:16.291Z,11.08
2019-03-18T08:32:44.794Z,6.97
2019-03-18T08:35:13.527Z,13.22
2019-03-18T08:37:41.995Z,6.47
2019-03-18T08:40:11.848Z,11.45
2019-03-18T08:42:40.730Z,10.98
2019-03-18T08:45:13.407Z,10.82
2019-03-18T08:47:42.305Z,8.68
2019-03-18T08:50:13.035Z,15.70
2019-03-18T08:52:41.739Z,14.75
2019-03-18T08:55:11.548Z,9.48
2019-03-18T08:57:40.344Z,7.65
2019-03-18T09:00:11.726Z,10.03
2019-03-18T09:02:40.484Z,8.48
2019-03-18T09:05:10.215Z,16.55
2019-03-18T09:07:38.738Z,12.10
2019-03-18T09:10:12.419Z,12.93
2019-03-18T09:12:41.159Z,11.07
2019-03-18T09:15:10.942Z,14.10
2019-03-18T09:17:39.410Z,15.88
2019-03-18T09:20:10.833Z,8.65
2019-03-18T09:22:39.619Z,12.53
2019-03-18T09:25:10.262Z,13.70
2019-03-18T09:27:38.726Z,9.18
2019-03-18T09:30:15.804Z,8.98
2019-03-18T09:32:45.414Z,15.83
2019-03-18T09:35:13.923Z,9.00
2019-03-18T09:37:42.719Z,11.33
2019-03-18T09:40:15.535Z,10.43
2019-03-18T09:42:44.391Z,11.00
2019-03-18T09:45:14.973Z,13.32
2019-03-18T09:47:43.723Z,7.95
2019-03-18T09:50:12.799Z,13.18
2019-03-18T09:52:41.615Z,10.15
2019-03-18T09:55:10.685Z,10.48
2019-03-18T09:57:39.403Z,9.18
2019-03-18T10:00:15.622Z,8.65
2019-03-18T10:02:44.071Z,7.50
2019-03-18T10:05:12.779Z,4.90
2019-03-18T10:07:41.531Z,8.43
2019-03-18T10:10:12.784Z,10.55
2019-03-18T10:12:41.231Z,10.30
2019-03-18T10:15:18.391Z,9.50
2019-03-18T10:17:46.844Z,8.00
2019-03-18T10:20:15.387Z,13.62
2019-03-18T10:22:43.937Z,11.68
2019-03-18T10:25:12.723Z,13.20
2019-03-18T10:27:41.501Z,13.65
2019-03-18T10:30:12.449Z,17.05
2019-03-18T10:32:41.231Z,10.55
2019-03-18T10:35:10.897Z,6.45
2019-03-18T10:37:39.634Z,6.87
2019-03-18T10:40:13.443Z,4.17
2019-03-18T10:42:41.895Z,28.30
2019-03-18T10:45:12.277Z,13.00
2019-03-18T10:47:40.879Z,12.18
2019-03-18T10:50:12.124Z,10.05
2019-03-18T10:52:40.891Z,5.67
2019-03-18T10:55:10.186Z,5.78
2019-03-18T10:57:38.987Z,4.92
2019-03-18T11:00:17.547Z,6.05
2019-03-18T11:02:46.283Z,9.55
2019-03-18T11:05:15.595Z,12.23
2019-03-18T11:07:44.140Z,9.65
2019-03-18T11:10:14.095Z,3.33
2019-03-18T11:12:42.751Z,9.60
2019-03-18T11:15:16.683Z,8.20
2019-03-18T11:17:45.166Z,6.42
2019-03-18T11:20:17.362Z,10.10
2019-03-18T11:22:45.905Z,3.72
2019-03-18T11:25:15.188Z,4.00
2019-03-18T11:27:43.660Z,4.28
2019-03-18T11:30:16.830Z,10.85
2019-03-18T11:32:45.456Z,4.65
2019-03-18T11:35:14.063Z,6.92
2019-03-18T11:37:42.780Z,11.57
2019-03-18T11:40:16.601Z,5.60
2019-03-18T11:42:45.087Z,5.40
2019-03-18T11:45:15.083Z,3.37
2019-03-18T11:47:43.695Z,7.55
2019-03-18T11:50:31.828Z,2.67
2019-03-18T11:53:00.928Z,4.03
2019-03-18T11:55:29.454Z,4.33
2019-03-18T11:57:57.998Z,2.42
2019-03-18T12:00:27.152Z,2.67
2019-03-18T12:02:55.622Z,10.05
2019-03-18T12:05:28.918Z,20.05
2019-03-18T12:07:57.470Z,3.52
2019-03-18T12:10:26.328Z,4.70
2019-03-18T12:12:54.922Z,6.30
2019-03-18T12:15:25.683Z,7.45
2019-03-18T12:17:54.361Z,6.90
2019-03-18T12:20:25.240Z,7.45
2019-03-18T12:22:53.672Z,9.63
2019-03-18T12:25:22.504Z,17.20
2019-03-18T12:27:51.053Z,3.77
2019-03-18T12:30:24.587Z,4.70
2019-03-18T12:32:53.061Z,5.45
2019-03-18T12:35:21.507Z,8.03
2019-03-18T12:37:49.979Z,5.42
2019-03-18T12:40:18.940Z,3.87
2019-03-18T12:42:47.580Z,2.75
2019-03-18T12:45:16.969Z,8.58
2019-03-18T12:47:45.608Z,4.50
2019-03-18T12:50:43.185Z,2.27
2019-03-18T12:52:54.402Z,4.12
2019-03-18T12:55:23.155Z,4.95
2019-03-18T12:57:51.965Z,5.37
2019-03-18T13:00:32.180Z,6.97
2019-03-18T13:03:00.820Z,8.98
2019-03-18T13:05:29.589Z,4.22
2019-03-18T13:07:58.062Z,2.65
2019-03-18T13:10:27.887Z,14.03
2019-03-18T13:12:56.682Z,15.65
2019-03-18T13:15:25.271Z,9.88
2019-03-18T13:17:53.746Z,7.50
2019-03-18T13:20:23.359Z,3.72
2019-03-18T13:22:53.903Z,6.30
2019-03-18T13:25:22.394Z,3.92
2019-03-18T13:27:51.013Z,4.62
2019-03-18T13:30:20.630Z,5.05
2019-03-18T13:32:49.384Z,3.85
2019-03-18T13:35:18.188Z,11.48
2019-03-18T13:37:46.805Z,5.05
2019-03-18T13:40:16.441Z,4.37
2019-03-18T13:42:45.468Z,5.45
2019-03-18T13:45:21.850Z,4.90
2019-03-18T13:47:50.328Z,6.12
2019-03-18T13:50:22.183Z,5.70
2019-03-18T13:52:50.656Z,4.67
2019-03-18T13:55:19.563Z,7.35
2019-03-18T13:57:48.459Z,6.35
2019-03-18T14:00:17.543Z,6.53
2019-03-18T14:02:46.024Z,9.85
2019-03-18T14:05:14.830Z,5.03
2019-03-18T14:07:43.727Z,4.47
2019-03-18T14:10:18.160Z,8.08
2019-03-18T14:12:46.971Z,10.98
2019-03-18T14:15:17.120Z,3.90
2019-03-18T14:17:45.606Z,5.72
2019-03-18T14:20:16.950Z,3.45
2019-03-18T14:22:45.699Z,9.00
2019-03-18T14:25:14.591Z,6.45
2019-03-18T14:27:43.510Z,6.55
2019-03-18T14:30:16.559Z,5.83
2019-03-18T14:32:45.371Z,6.22
2019-03-18T14:35:14.475Z,8.20
2019-03-18T14:37:43.373Z,10.32
2019-03-18T14:40:17.107Z,9.98
2019-03-18T14:42:45.867Z,5.45
2019-03-18T14:45:16.813Z,5.17
2019-03-18T14:47:45.260Z,5.58
2019-03-18T14:50:16.967Z,8.38
2019-03-18T14:52:46.053Z,8.75
2019-03-18T14:55:15.663Z,7.03
2019-03-18T14:57:44.111Z,6.22
2019-03-18T15:00:20.837Z,4.42
2019-03-18T15:02:49.683Z,3.98
2019-03-18T15:05:18.507Z,8.05
2019-03-18T15:07:47.301Z,10.13
2019-03-18T15:10:18.074Z,9.63
2019-03-18T15:12:46.523Z,7.87
2019-03-18T15:15:18.899Z,11.22
2019-03-18T15:17:47.999Z,8.15
2019-03-18T15:20:20.471Z,6.40
2019-03-18T15:22:49.276Z,10.75
2019-03-18T15:25:34.687Z,9.68
2019-03-18T15:28:03.435Z,9.15
2019-03-18T15:30:33.555Z,10.95
2019-03-18T15:33:02.352Z,6.08
2019-03-18T15:35:30.895Z,5.65
2019-03-18T15:37:59.343Z,5.67
2019-03-18T15:40:28.460Z,4.03
2019-03-18T15:42:57.046Z,6.00
2019-03-18T15:45:25.903Z,5.03
2019-03-18T15:47:54.791Z,3.52
2019-03-18T15:50:27.009Z,12.00
2019-03-18T15:52:55.529Z,6.28
2019-03-18T15:55:24.617Z,11.90
2019-03-18T15:57:54.171Z,10.82
2019-03-18T16:00:24.295Z,6.83
2019-03-18T16:02:52.752Z,12.47
2019-03-18T16:05:21.668Z,8.10
2019-03-18T16:07:50.115Z,6.05
2019-03-18T16:10:19.863Z,8.30
2019-03-18T16:12:48.864Z,11.43
2019-03-18T16:15:20.428Z,9.83
2019-03-18T16:17:49.624Z,11.95
2019-03-18T16:20:23.964Z,12.53
2019-03-18T16:22:52.483Z,8.40
2019-03-18T16:25:21.023Z,9.15
2019-03-18T16:27:49.812Z,8.20
2019-03-18T16:30:20.129Z,8.30
2019-03-18T16:32:48.595Z,7.90
2019-03-18T16:35:17.759Z,5.37
2019-03-18T16:37:46.215Z,6.30
2019-03-18T16:40:20.663Z,6.40
2019-03-18T16:42:49.251Z,7.87
2019-03-18T16:45:18.464Z,7.58
2019-03-18T16:47:47.225Z,11.00
2019-03-18T16:50:22.055Z,9.58
2019-03-18T16:52:50.580Z,7.33
2019-03-18T16:55:19.115Z,7.87
2019-03-18T16:57:47.563Z,3.67
2019-03-18T17:00:21.987Z,8.33
2019-03-18T17:02:50.438Z,4.72
2019-03-18T17:05:19.507Z,11.25
2019-03-18T17:07:47.955Z,4.58
2019-03-18T17:10:17.971Z,8.15
2019-03-18T17:12:46.497Z,6.25
2019-03-18T17:15:18.041Z,8.90
2019-03-18T17:17:46.486Z,9.65
2019-03-18T17:20:15.774Z,12.35
2019-03-18T17:22:49.468Z,10.75
2019-03-18T17:25:22.794Z,17.65
2019-03-18T17:27:51.636Z,7.00
2019-03-18T17:30:21.421Z,6.33
2019-03-18T17:32:49.963Z,6.55
2019-03-18T17:35:18.831Z,11.15
2019-03-18T17:37:47.618Z,22.17
2019-03-18T17:40:20.722Z,19.12
2019-03-18T17:42:49.273Z,10.98
2019-03-18T17:45:20.755Z,6.53
2019-03-18T17:47:49.544Z,4.40
2019-03-18T17:50:28.480Z,9.38
2019-03-18T17:53:02.899Z,13.95
2019-03-18T17:55:27.489Z,22.98
2019-03-18T17:57:56.286Z,20.40
2019-03-18T18:00:32.496Z,25.75
2019-03-18T18:03:01.270Z,19.52
2019-03-18T18:05:29.731Z,9.55
2019-03-18T18:07:58.618Z,9.35
2019-03-18T18:10:28.367Z,7.67
2019-03-18T18:12:56.839Z,11.55
2019-03-18T18:15:25.297Z,14.95
2019-03-18T18:17:53.848Z,12.55
2019-03-18T18:20:22.688Z,15.35
2019-03-18T18:22:51.248Z,16.60
2019-03-18T18:25:19.700Z,23.35
2019-03-18T18:27:48.351Z,19.55
2019-03-18T18:30:17.913Z,24.45
2019-03-18T18:32:46.755Z,24.52
2019-03-18T18:35:15.544Z,27.07
2019-03-18T18:37:44.096Z,22.05
2019-03-18T18:40:23.458Z,20.72
2019-03-18T18:42:51.927Z,16.23
2019-03-18T18:45:21.357Z,21.20
2019-03-18T18:47:50.094Z,15.98
2019-03-18T18:50:20.185Z,17.45
2019-03-18T18:52:48.668Z,17.48
2019-03-18T18:55:17.447Z,14.73
2019-03-18T18:57:46.235Z,18.32
2019-03-18T19:00:21.272Z,18.50
2019-03-18T19:02:50.172Z,17.37
2019-03-18T19:05:18.973Z,18.60
2019-03-18T19:07:47.983Z,30.23
2019-03-18T19:10:19.619Z,22.82
2019-03-18T19:12:48.418Z,21.77
2019-03-18T19:15:21.799Z,20.90
2019-03-18T19:17:50.269Z,21.37
2019-03-18T19:20:20.516Z,21.57
2019-03-18T19:22:48.994Z,22.80
2019-03-18T19:25:18.330Z,20.72
2019-03-18T19:27:47.206Z,17.98
2019-03-18T19:30:20.232Z,26.90
2019-03-18T19:32:48.783Z,21.80
2019-03-18T19:35:17.402Z,19.55
2019-03-18T19:37:45.879Z,17.40
2019-03-18T19:40:20.589Z,21.20
2019-03-18T19:42:49.151Z,17.20
2019-03-18T19:45:17.595Z,18.05
2019-03-18T19:47:46.147Z,20.77
2019-03-18T19:50:27.735Z,20.08
2019-03-18T19:52:56.234Z,22.87
2019-03-18T19:55:24.730Z,20.62
2019-03-18T19:57:53.204Z,23.10
2019-03-18T20:00:24.567Z,16.90
2019-03-18T20:02:53.859Z,22.48
2019-03-18T20:05:22.379Z,21.45
2019-03-18T20:07:50.832Z,16.62
2019-03-18T20:10:20.676Z,16.95
2019-03-18T20:12:49.227Z,19.98
2019-03-18T20:15:18.944Z,24.27
2019-03-18T20:17:47.829Z,15.85
2019-03-18T20:20:20.530Z,21.85
2019-03-18T20:22:49.040Z,14.03
2019-03-18T20:25:17.791Z,19.30
2019-03-18T20:27:46.243Z,20.05
2019-03-18T20:30:22.504Z,20.00
2019-03-18T20:32:51.436Z,19.60
2019-03-18T20:35:21.193Z,19.02
2019-03-18T20:37:51.961Z,18.42
2019-03-18T20:40:21.532Z,23.60
2019-03-18T20:42:49.994Z,18.15
2019-03-18T20:45:23.795Z,23.83
2019-03-18T20:47:52.321Z,23.40
2019-03-18T20:50:24.955Z,21.30
2019-03-18T20:52:53.818Z,20.37
2019-03-18T20:55:22.943Z,31.15
2019-03-18T20:57:51.406Z,23.92
2019-03-18T21:00:20.919Z,18.67
2019-03-18T21:02:49.736Z,21.10
2019-03-18T21:05:18.528Z,20.55
2019-03-18T21:07:47.321Z,23.02
2019-03-18T21:10:23.256Z,24.65
2019-03-18T21:12:51.783Z,27.52
2019-03-18T21:15:20.559Z,21.33
2019-03-18T21:17:49.083Z,21.12
2019-03-18T21:20:21.652Z,22.70
2019-03-18T21:22:50.411Z,25.60
2019-03-18T21:25:18.887Z,17.85
2019-03-18T21:27:47.330Z,28.12
2019-03-18T21:30:20.790Z,27.13
2019-03-18T21:32:49.393Z,22.57
2019-03-18T21:35:17.966Z,21.20
2019-03-18T21:37:46.749Z,26.85
2019-03-18T21:40:20.251Z,21.33
2019-03-18T21:42:48.708Z,19.10
2019-03-18T21:45:18.759Z,23.65
2019-03-18T21:47:47.217Z,22.10
2019-03-18T21:50:17.643Z,24.98
2019-03-18T21:52:46.167Z,21.60
2019-03-18T21:55:16.603Z,20.50
2019-03-18T21:57:45.483Z,21.10
2019-03-18T22:00:18.884Z,23.02
2019-03-18T22:02:47.398Z,27.25
2019-03-18T22:05:16.011Z,24.25
2019-03-18T22:07:44.735Z,25.85
2019-03-18T22:10:18.638Z,26.37
2019-03-18T22:12:47.632Z,23.92
2019-03-18T22:15:17.066Z,18.98
2019-03-18T22:17:45.652Z,17.40
2019-03-18T22:20:15.775Z,17.85
2019-03-18T22:22:44.325Z,19.23
2019-03-18T22:25:14.184Z,20.15
2019-03-18T22:27:43.070Z,19.30
2019-03-18T22:30:21.756Z,15.32
2019-03-18T22:32:50.214Z,18.75
2019-03-18T22:35:18.762Z,18.40
2019-03-18T22:37:47.211Z,13.72
2019-03-18T22:40:17.279Z,17.90
2019-03-18T22:42:46.062Z,21.23
2019-03-18T22:45:15.956Z,21.73
2019-03-18T22:47:44.775Z,16.70
2019-03-18T22:50:14.596Z,19.32
2019-03-18T22:52:43.047Z,18.77
2019-03-18T22:55:12.639Z,28.23
2019-03-18T22:57:41.379Z,23.77
2019-03-18T23:00:17.143Z,27.93
2019-03-18T23:02:46.028Z,26.48
2019-03-18T23:05:15.135Z,18.82
2019-03-18T23:07:43.588Z,19.17
2019-03-18T23:10:12.039Z,18.87
2019-03-18T23:12:40.787Z,21.00
2019-03-18T23:15:09.483Z,21.73
2019-03-18T23:17:38.856Z,26.12
2019-03-18T23:20:08.254Z,27.37
2019-03-18T23:22:36.867Z,24.02
2019-03-18T23:25:08.173Z,27.85
2019-03-18T23:27:36.923Z,24.47
2019-03-18T23:30:10.941Z,26.62
2019-03-18T23:32:39.819Z,24.67
2019-03-18T23:35:09.818Z,22.48
2019-03-18T23:37:40.384Z,20.12
2019-03-18T23:40:13.071Z,26.30
2019-03-18T23:42:41.550Z,20.37
2019-03-18T23:45:11.409Z,24.27
2019-03-18T23:47:42.597Z,27.27
2019-03-18T23:50:13.347Z,24.72
2019-03-18T23:52:42.086Z,25.68
2019-03-18T23:55:18.874Z,26.00
2019-03-18T23:57:43.311Z,20.50
